sensor_id;sensor_type;location;lat;lon;timestamp;temperature;humidity
6879;DHT22;3478;51.462;7.338;2022-11-15T00:03:46;10.50;99.90
6879;DHT22;3478;51.462;7.338;2022-11-15T00:08:52;10.50;99.90
6879;DHT22;3478;51.462;7.338;2022-11-15T00:13:56;10.50;99.90
6879;DHT22;3478;51.462;7.338;2022-11-15T00:18:58;10.70;99.90
6879;DHT22;3478;51.462;7.338;2022-11-15T00:24:00;10.70;99.90
6879;DHT22;3478;51.462;7.338;2022-11-15T00:29:03;10.80;99.90
6879;DHT22;3478;51.462;7.338;2022-11-15T00:34:05;10.90;99.90
6879;DHT22;3478;51.462;7.338;2022-11-15T00:39:07;11.00;99.90
6879;DHT22;3478;51.462;7.338;2022-11-15T00:44:11;11.10;99.90
6879;DHT22;3478;51.462;7.338;2022-11-15T00:49:12;11.20;99.90
6879;DHT22;3478;51.462;7.338;2022-11-15T00:54:14;11.20;99.90
6879;DHT22;3478;51.462;7.338;2022-11-15T00:59:17;11.30;99.90
6879;DHT22;3478;51.462;7.338;2022-11-15T01:04:19;11.40;99.90
6879;DHT22;3478;51.462;7.338;2022-11-15T01:09:21;11.40;99.90
6879;DHT22;3478;51.462;7.338;2022-11-15T01:14:25;11.50;99.90
6879;DHT22;3478;51.462;7.338;2022-11-15T01:19:26;11.60;99.90
6879;DHT22;3478;51.462;7.338;2022-11-15T01:24:28;11.70;99.90
6879;DHT22;3478;51.462;7.338;2022-11-15T01:29:31;11.70;99.90
6879;DHT22;3478;51.462;7.338;2022-11-15T01:34:33;11.70;99.90
6879;DHT22;3478;51.462;7.338;2022-11-15T01:39:35;11.80;99.90
6879;DHT22;3478;51.462;7.338;2022-11-15T01:44:47;11.80;99.90
6879;DHT22;3478;51.462;7.338;2022-11-15T01:49:53;11.80;99.90
6879;DHT22;3478;51.462;7.338;2022-11-15T01:54:59;11.80;99.90
6879;DHT22;3478;51.462;7.338;2022-11-15T02:00:06;11.80;99.90
6879;DHT22;3478;51.462;7.338;2022-11-15T02:05:08;11.80;99.90
6879;DHT22;3478;51.462;7.338;2022-11-15T02:10:13;11.80;99.90
6879;DHT22;3478;51.462;7.338;2022-11-15T02:15:16;11.80;99.90
6879;DHT22;3478;51.462;7.338;2022-11-15T02:20:41;11.80;99.90
6879;DHT22;3478;51.462;7.338;2022-11-15T02:25:57;11.80;99.90
6879;DHT22;3478;51.462;7.338;2022-11-15T02:31:13;11.90;99.90
6879;DHT22;3478;51.462;7.338;2022-11-15T02:36:29;11.90;99.90
6879;DHT22;3478;51.462;7.338;2022-11-15T02:41:42;11.90;99.90
6879;DHT22;3478;51.462;7.338;2022-11-15T02:46:51;11.90;99.90
6879;DHT22;3478;51.462;7.338;2022-11-15T02:52:14;11.90;99.90
6879;DHT22;3478;51.462;7.338;2022-11-15T02:57:19;11.80;99.90
6879;DHT22;3478;51.462;7.338;2022-11-15T03:02:40;11.80;99.90
6879;DHT22;3478;51.462;7.338;2022-11-15T03:07:47;11.80;99.90
6879;DHT22;3478;51.462;7.338;2022-11-15T03:12:56;11.70;99.90
6879;DHT22;3478;51.462;7.338;2022-11-15T03:18:03;11.80;99.90
6879;DHT22;3478;51.462;7.338;2022-11-15T03:23:10;11.80;99.90
6879;DHT22;3478;51.462;7.338;2022-11-15T03:28:14;11.80;99.90
6879;DHT22;3478;51.462;7.338;2022-11-15T03:33:21;11.80;99.90
6879;DHT22;3478;51.462;7.338;2022-11-15T03:38:24;11.80;99.90
6879;DHT22;3478;51.462;7.338;2022-11-15T03:43:32;11.80;99.90
6879;DHT22;3478;51.462;7.338;2022-11-15T03:48:39;11.80;99.90
6879;DHT22;3478;51.462;7.338;2022-11-15T03:53:43;11.90;99.90
6879;DHT22;3478;51.462;7.338;2022-11-15T03:58:45;11.90;99.90
6879;DHT22;3478;51.462;7.338;2022-11-15T04:03:48;12.00;99.90
6879;DHT22;3478;51.462;7.338;2022-11-15T04:08:50;12.00;99.90
6879;DHT22;3478;51.462;7.338;2022-11-15T04:13:52;12.00;99.90
6879;DHT22;3478;51.462;7.338;2022-11-15T04:18:55;12.00;99.90
6879;DHT22;3478;51.462;7.338;2022-11-15T04:24:11;11.90;99.90
6879;DHT22;3478;51.462;7.338;2022-11-15T04:29:15;11.90;99.90
6879;DHT22;3478;51.462;7.338;2022-11-15T04:34:36;11.90;99.90
6879;DHT22;3478;51.462;7.338;2022-11-15T04:39:41;11.90;99.90
6879;DHT22;3478;51.462;7.338;2022-11-15T04:44:43;12.00;99.90
6879;DHT22;3478;51.462;7.338;2022-11-15T04:49:47;12.00;99.90
6879;DHT22;3478;51.462;7.338;2022-11-15T04:54:48;12.00;99.90
6879;DHT22;3478;51.462;7.338;2022-11-15T04:59:50;12.10;99.90
6879;DHT22;3478;51.462;7.338;2022-11-15T05:04:53;12.10;99.90
6879;DHT22;3478;51.462;7.338;2022-11-15T05:09:55;12.10;99.90
6879;DHT22;3478;51.462;7.338;2022-11-15T05:14:57;12.10;99.90
6879;DHT22;3478;51.462;7.338;2022-11-15T05:20:00;12.10;99.90
6879;DHT22;3478;51.462;7.338;2022-11-15T05:25:03;12.10;99.90
6879;DHT22;3478;51.462;7.338;2022-11-15T05:30:06;12.10;99.90
6879;DHT22;3478;51.462;7.338;2022-11-15T05:35:13;12.10;99.90
6879;DHT22;3478;51.462;7.338;2022-11-15T05:40:16;12.10;99.90
6879;DHT22;3478;51.462;7.338;2022-11-15T05:45:18;12.10;99.90
6879;DHT22;3478;51.462;7.338;2022-11-15T05:50:22;12.20;99.90
6879;DHT22;3478;51.462;7.338;2022-11-15T05:55:24;12.20;99.90
6879;DHT22;3478;51.462;7.338;2022-11-15T06:00:26;12.20;99.90
6879;DHT22;3478;51.462;7.338;2022-11-15T06:05:29;12.20;99.90
6879;DHT22;3478;51.462;7.338;2022-11-15T06:10:32;12.20;99.90
6879;DHT22;3478;51.462;7.338;2022-11-15T06:15:34;12.20;99.90
6879;DHT22;3478;51.462;7.338;2022-11-15T06:20:37;12.20;99.90
6879;DHT22;3478;51.462;7.338;2022-11-15T06:25:39;12.20;99.90
6879;DHT22;3478;51.462;7.338;2022-11-15T06:30:41;12.20;99.90
6879;DHT22;3478;51.462;7.338;2022-11-15T06:35:44;12.20;99.90
6879;DHT22;3478;51.462;7.338;2022-11-15T06:40:46;12.30;99.90
6879;DHT22;3478;51.462;7.338;2022-11-15T06:45:47;12.30;99.90
6879;DHT22;3478;51.462;7.338;2022-11-15T06:50:52;12.30;99.90
6879;DHT22;3478;51.462;7.338;2022-11-15T06:55:58;12.30;99.90
6879;DHT22;3478;51.462;7.338;2022-11-15T07:01:02;12.30;99.90
6879;DHT22;3478;51.462;7.338;2022-11-15T07:06:06;12.30;99.90
6879;DHT22;3478;51.462;7.338;2022-11-15T07:11:09;12.40;99.90
6879;DHT22;3478;51.462;7.338;2022-11-15T07:16:11;12.40;99.90
6879;DHT22;3478;51.462;7.338;2022-11-15T07:21:14;12.40;99.90
6879;DHT22;3478;51.462;7.338;2022-11-15T07:26:16;12.40;99.90
6879;DHT22;3478;51.462;7.338;2022-11-15T07:31:17;12.40;99.90
6879;DHT22;3478;51.462;7.338;2022-11-15T07:36:21;12.40;99.90
6879;DHT22;3478;51.462;7.338;2022-11-15T07:41:22;12.30;99.90
6879;DHT22;3478;51.462;7.338;2022-11-15T07:46:24;12.20;99.90
6879;DHT22;3478;51.462;7.338;2022-11-15T07:51:28;12.20;99.90
6879;DHT22;3478;51.462;7.338;2022-11-15T07:56:29;12.10;99.90
6879;DHT22;3478;51.462;7.338;2022-11-15T08:01:31;12.00;99.90
6879;DHT22;3478;51.462;7.338;2022-11-15T08:06:35;12.00;99.90
6879;DHT22;3478;51.462;7.338;2022-11-15T08:11:36;12.00;99.90
6879;DHT22;3478;51.462;7.338;2022-11-15T08:16:38;12.00;99.90
6879;DHT22;3478;51.462;7.338;2022-11-15T08:21:41;12.10;99.90
6879;DHT22;3478;51.462;7.338;2022-11-15T08:26:43;12.20;99.90
6879;DHT22;3478;51.462;7.338;2022-11-15T08:31:45;12.20;99.90
6879;DHT22;3478;51.462;7.338;2022-11-15T08:36:48;12.30;99.90
6879;DHT22;3478;51.462;7.338;2022-11-15T08:41:50;12.40;99.90
6879;DHT22;3478;51.462;7.338;2022-11-15T08:46:52;12.50;99.90
6879;DHT22;3478;51.462;7.338;2022-11-15T08:51:56;12.50;99.90
6879;DHT22;3478;51.462;7.338;2022-11-15T08:56:57;12.70;99.90
6879;DHT22;3478;51.462;7.338;2022-11-15T09:01:59;12.70;99.90
6879;DHT22;3478;51.462;7.338;2022-11-15T09:07:02;12.60;99.90
6879;DHT22;3478;51.462;7.338;2022-11-15T09:12:05;12.70;99.90
6879;DHT22;3478;51.462;7.338;2022-11-15T09:17:08;12.80;99.90
6879;DHT22;3478;51.462;7.338;2022-11-15T09:22:11;12.80;99.90
6879;DHT22;3478;51.462;7.338;2022-11-15T09:27:13;12.80;99.90
6879;DHT22;3478;51.462;7.338;2022-11-15T09:32:15;12.80;99.90
6879;DHT22;3478;51.462;7.338;2022-11-15T09:37:18;12.80;99.90
6879;DHT22;3478;51.462;7.338;2022-11-15T09:42:37;12.80;99.90
6879;DHT22;3478;51.462;7.338;2022-11-15T09:48:03;12.90;99.90
6879;DHT22;3478;51.462;7.338;2022-11-15T09:53:13;12.90;99.90
6879;DHT22;3478;51.462;7.338;2022-11-15T09:58:21;13.00;99.90
6879;DHT22;3478;51.462;7.338;2022-11-15T10:03:30;13.20;99.90
6879;DHT22;3478;51.462;7.338;2022-11-15T10:08:46;13.50;99.90
6879;DHT22;3478;51.462;7.338;2022-11-15T10:13:54;13.40;99.90
6879;DHT22;3478;51.462;7.338;2022-11-15T10:19:00;13.20;99.90
6879;DHT22;3478;51.462;7.338;2022-11-15T10:24:12;13.30;99.90
6879;DHT22;3478;51.462;7.338;2022-11-15T10:29:18;13.20;99.90
6879;DHT22;3478;51.462;7.338;2022-11-15T10:34:26;13.20;99.90
6879;DHT22;3478;51.462;7.338;2022-11-15T10:39:29;13.20;99.90
6879;DHT22;3478;51.462;7.338;2022-11-15T10:44:41;13.40;99.90
6879;DHT22;3478;51.462;7.338;2022-11-15T10:49:54;13.40;99.90
6879;DHT22;3478;51.462;7.338;2022-11-15T10:55:01;13.40;99.90
6879;DHT22;3478;51.462;7.338;2022-11-15T11:00:12;13.40;99.90
6879;DHT22;3478;51.462;7.338;2022-11-15T11:05:29;13.40;99.90
6879;DHT22;3478;51.462;7.338;2022-11-15T11:10:33;13.60;99.90
6879;DHT22;3478;51.462;7.338;2022-11-15T11:15:35;13.50;99.90
6879;DHT22;3478;51.462;7.338;2022-11-15T11:20:41;13.60;99.90
6879;DHT22;3478;51.462;7.338;2022-11-15T11:25:51;13.70;99.90
6879;DHT22;3478;51.462;7.338;2022-11-15T11:31:04;13.70;99.90
6879;DHT22;3478;51.462;7.338;2022-11-15T11:36:18;13.80;99.90
6879;DHT22;3478;51.462;7.338;2022-11-15T11:41:46;13.90;99.90
6879;DHT22;3478;51.462;7.338;2022-11-15T11:46:54;14.00;99.90
6879;DHT22;3478;51.462;7.338;2022-11-15T11:52:02;14.00;99.90
6879;DHT22;3478;51.462;7.338;2022-11-15T11:57:25;14.10;99.90
6879;DHT22;3478;51.462;7.338;2022-11-15T12:02:33;14.20;99.90
6879;DHT22;3478;51.462;7.338;2022-11-15T12:07:38;14.30;99.90
6879;DHT22;3478;51.462;7.338;2022-11-15T12:12:49;14.40;99.90
6879;DHT22;3478;51.462;7.338;2022-11-15T12:17:52;14.50;99.90
6879;DHT22;3478;51.462;7.338;2022-11-15T12:22:59;14.50;99.90
6879;DHT22;3478;51.462;7.338;2022-11-15T12:28:07;14.70;99.90
6879;DHT22;3478;51.462;7.338;2022-11-15T12:33:30;14.80;99.90
6879;DHT22;3478;51.462;7.338;2022-11-15T12:38:55;14.90;99.90
6879;DHT22;3478;51.462;7.338;2022-11-15T12:44:00;14.80;99.90
6879;DHT22;3478;51.462;7.338;2022-11-15T12:49:07;14.80;99.90
6879;DHT22;3478;51.462;7.338;2022-11-15T12:54:52;15.00;99.90
6879;DHT22;3478;51.462;7.338;2022-11-15T12:59:57;15.20;99.90
6879;DHT22;3478;51.462;7.338;2022-11-15T13:05:57;15.20;99.90
6879;DHT22;3478;51.462;7.338;2022-11-15T13:11:47;15.40;99.90
6879;DHT22;3478;51.462;7.338;2022-11-15T13:16:58;16.60;99.90
6879;DHT22;3478;51.462;7.338;2022-11-15T13:22:00;18.00;98.60
6879;DHT22;3478;51.462;7.338;2022-11-15T13:27:25;19.40;95.50
6879;DHT22;3478;51.462;7.338;2022-11-15T13:32:29;20.00;93.40
6879;DHT22;3478;51.462;7.338;2022-11-15T13:37:31;19.90;91.90
6879;DHT22;3478;51.462;7.338;2022-11-15T13:42:34;20.10;92.20
6879;DHT22;3478;51.462;7.338;2022-11-15T13:47:38;20.80;89.70
6879;DHT22;3478;51.462;7.338;2022-11-15T13:52:43;20.30;88.30
6879;DHT22;3478;51.462;7.338;2022-11-15T13:57:48;18.70;91.30
6879;DHT22;3478;51.462;7.338;2022-11-15T14:02:53;16.90;93.70
6879;DHT22;3478;51.462;7.338;2022-11-15T14:07:57;15.70;98.40
6879;DHT22;3478;51.462;7.338;2022-11-15T14:13:00;15.10;99.90
6879;DHT22;3478;51.462;7.338;2022-11-15T14:18:05;14.80;99.90
6879;DHT22;3478;51.462;7.338;2022-11-15T14:23:23;14.70;99.90
6879;DHT22;3478;51.462;7.338;2022-11-15T14:28:30;14.60;99.90
6879;DHT22;3478;51.462;7.338;2022-11-15T14:33:38;14.50;99.90
6879;DHT22;3478;51.462;7.338;2022-11-15T14:38:41;14.40;99.90
6879;DHT22;3478;51.462;7.338;2022-11-15T14:43:44;14.40;99.90
6879;DHT22;3478;51.462;7.338;2022-11-15T14:48:48;14.30;99.90
6879;DHT22;3478;51.462;7.338;2022-11-15T14:53:50;14.20;99.90
6879;DHT22;3478;51.462;7.338;2022-11-15T14:58:52;14.00;99.90
6879;DHT22;3478;51.462;7.338;2022-11-15T15:03:56;14.00;99.90
6879;DHT22;3478;51.462;7.338;2022-11-15T15:08:59;13.90;99.90
6879;DHT22;3478;51.462;7.338;2022-11-15T15:14:03;13.90;99.90
6879;DHT22;3478;51.462;7.338;2022-11-15T15:19:06;13.80;99.90
6879;DHT22;3478;51.462;7.338;2022-11-15T15:24:09;13.70;99.90
6879;DHT22;3478;51.462;7.338;2022-11-15T15:29:15;13.70;99.90
6879;DHT22;3478;51.462;7.338;2022-11-15T15:34:18;13.60;99.90
6879;DHT22;3478;51.462;7.338;2022-11-15T15:39:37;13.60;99.90
6879;DHT22;3478;51.462;7.338;2022-11-15T15:44:39;13.50;99.90
6879;DHT22;3478;51.462;7.338;2022-11-15T15:49:43;13.50;99.90
6879;DHT22;3478;51.462;7.338;2022-11-15T15:54:52;13.50;99.90
6879;DHT22;3478;51.462;7.338;2022-11-15T15:59:54;13.50;99.90
6879;DHT22;3478;51.462;7.338;2022-11-15T16:04:57;13.50;99.90
6879;DHT22;3478;51.462;7.338;2022-11-15T16:09:59;13.40;99.90
6879;DHT22;3478;51.462;7.338;2022-11-15T16:15:02;13.40;99.90
6879;DHT22;3478;51.462;7.338;2022-11-15T16:20:21;13.40;99.90
6879;DHT22;3478;51.462;7.338;2022-11-15T16:25:24;13.40;99.90
6879;DHT22;3478;51.462;7.338;2022-11-15T16:30:26;13.40;99.90
6879;DHT22;3478;51.462;7.338;2022-11-15T16:35:29;13.40;99.90
6879;DHT22;3478;51.462;7.338;2022-11-15T16:40:33;13.30;99.90
6879;DHT22;3478;51.462;7.338;2022-11-15T16:45:36;13.30;99.90
6879;DHT22;3478;51.462;7.338;2022-11-15T16:50:39;13.40;99.90
6879;DHT22;3478;51.462;7.338;2022-11-15T16:55:41;13.40;99.90
6879;DHT22;3478;51.462;7.338;2022-11-15T17:00:43;13.40;99.90
6879;DHT22;3478;51.462;7.338;2022-11-15T17:05:49;13.40;99.90
6879;DHT22;3478;51.462;7.338;2022-11-15T17:10:51;13.40;99.90
6879;DHT22;3478;51.462;7.338;2022-11-15T17:16:03;13.40;99.90
6879;DHT22;3478;51.462;7.338;2022-11-15T17:21:09;13.40;99.90
6879;DHT22;3478;51.462;7.338;2022-11-15T17:26:14;13.40;99.90
6879;DHT22;3478;51.462;7.338;2022-11-15T17:31:16;13.40;99.90
6879;DHT22;3478;51.462;7.338;2022-11-15T17:36:20;13.40;99.90
6879;DHT22;3478;51.462;7.338;2022-11-15T17:41:22;13.40;99.90
6879;DHT22;3478;51.462;7.338;2022-11-15T17:46:25;13.40;99.90
6879;DHT22;3478;51.462;7.338;2022-11-15T17:51:29;13.40;99.90
6879;DHT22;3478;51.462;7.338;2022-11-15T17:56:33;13.40;99.90
6879;DHT22;3478;51.462;7.338;2022-11-15T18:01:39;13.40;99.90
6879;DHT22;3478;51.462;7.338;2022-11-15T18:06:42;13.50;99.90
6879;DHT22;3478;51.462;7.338;2022-11-15T18:11:44;13.50;99.90
6879;DHT22;3478;51.462;7.338;2022-11-15T18:16:50;13.50;99.90
6879;DHT22;3478;51.462;7.338;2022-11-15T18:21:56;13.50;99.90
6879;DHT22;3478;51.462;7.338;2022-11-15T18:27:00;13.50;99.90
6879;DHT22;3478;51.462;7.338;2022-11-15T18:32:02;13.50;99.90
6879;DHT22;3478;51.462;7.338;2022-11-15T18:37:12;13.50;99.90
6879;DHT22;3478;51.462;7.338;2022-11-15T18:42:14;13.60;99.90
6879;DHT22;3478;51.462;7.338;2022-11-15T18:47:16;13.60;99.90
6879;DHT22;3478;51.462;7.338;2022-11-15T18:52:20;13.60;99.90
6879;DHT22;3478;51.462;7.338;2022-11-15T18:57:22;13.60;99.90
6879;DHT22;3478;51.462;7.338;2022-11-15T19:02:24;13.60;99.90
6879;DHT22;3478;51.462;7.338;2022-11-15T19:07:28;13.60;99.90
6879;DHT22;3478;51.462;7.338;2022-11-15T19:12:31;13.60;99.90
6879;DHT22;3478;51.462;7.338;2022-11-15T19:17:33;13.60;99.90
6879;DHT22;3478;51.462;7.338;2022-11-15T19:22:36;13.60;99.90
6879;DHT22;3478;51.462;7.338;2022-11-15T19:27:38;13.60;99.90
6879;DHT22;3478;51.462;7.338;2022-11-15T19:32:40;13.60;99.90
6879;DHT22;3478;51.462;7.338;2022-11-15T19:37:44;13.60;99.90
6879;DHT22;3478;51.462;7.338;2022-11-15T19:42:46;13.60;99.90
6879;DHT22;3478;51.462;7.338;2022-11-15T19:47:48;13.60;99.90
6879;DHT22;3478;51.462;7.338;2022-11-15T19:52:51;13.70;99.90
6879;DHT22;3478;51.462;7.338;2022-11-15T19:57:53;13.60;99.90
6879;DHT22;3478;51.462;7.338;2022-11-15T20:02:55;13.50;99.90
6879;DHT22;3478;51.462;7.338;2022-11-15T20:07:59;13.40;99.90
6879;DHT22;3478;51.462;7.338;2022-11-15T20:13:01;13.40;99.90
6879;DHT22;3478;51.462;7.338;2022-11-15T20:18:03;13.40;99.90
6879;DHT22;3478;51.462;7.338;2022-11-15T20:23:07;13.30;99.90
6879;DHT22;3478;51.462;7.338;2022-11-15T20:28:14;13.30;99.90
6879;DHT22;3478;51.462;7.338;2022-11-15T20:33:16;13.20;99.90
6879;DHT22;3478;51.462;7.338;2022-11-15T20:38:20;13.20;99.90
6879;DHT22;3478;51.462;7.338;2022-11-15T20:43:23;13.20;99.90
6879;DHT22;3478;51.462;7.338;2022-11-15T20:48:25;13.10;99.90
6879;DHT22;3478;51.462;7.338;2022-11-15T20:53:28;13.10;99.90
6879;DHT22;3478;51.462;7.338;2022-11-15T20:58:30;13.00;99.90
6879;DHT22;3478;51.462;7.338;2022-11-15T21:03:33;13.00;99.90
6879;DHT22;3478;51.462;7.338;2022-11-15T21:08:37;13.00;99.90
6879;DHT22;3478;51.462;7.338;2022-11-15T21:13:56;13.10;99.90
6879;DHT22;3478;51.462;7.338;2022-11-15T21:18:58;13.10;99.90
6879;DHT22;3478;51.462;7.338;2022-11-15T21:24:03;13.10;99.90
6879;DHT22;3478;51.462;7.338;2022-11-15T21:29:06;13.10;99.90
6879;DHT22;3478;51.462;7.338;2022-11-15T21:34:08;13.10;99.90
6879;DHT22;3478;51.462;7.338;2022-11-15T21:39:11;13.10;99.90
6879;DHT22;3478;51.462;7.338;2022-11-15T21:44:13;13.10;99.90
6879;DHT22;3478;51.462;7.338;2022-11-15T21:49:15;13.10;99.90
6879;DHT22;3478;51.462;7.338;2022-11-15T21:54:18;13.10;99.90
6879;DHT22;3478;51.462;7.338;2022-11-15T21:59:20;13.00;99.90
6879;DHT22;3478;51.462;7.338;2022-11-15T22:04:22;13.00;99.90
6879;DHT22;3478;51.462;7.338;2022-11-15T22:09:25;13.00;99.90
6879;DHT22;3478;51.462;7.338;2022-11-15T22:14:27;12.90;99.90
6879;DHT22;3478;51.462;7.338;2022-11-15T22:19:29;12.90;99.90
6879;DHT22;3478;51.462;7.338;2022-11-15T22:24:32;12.90;99.90
6879;DHT22;3478;51.462;7.338;2022-11-15T22:29:34;12.90;99.90
6879;DHT22;3478;51.462;7.338;2022-11-15T22:34:36;12.90;99.90
6879;DHT22;3478;51.462;7.338;2022-11-15T22:39:40;12.90;99.90
6879;DHT22;3478;51.462;7.338;2022-11-15T22:44:42;12.90;99.90
6879;DHT22;3478;51.462;7.338;2022-11-15T22:49:43;12.90;99.90
6879;DHT22;3478;51.462;7.338;2022-11-15T22:54:47;12.90;99.90
6879;DHT22;3478;51.462;7.338;2022-11-15T22:59:49;12.90;99.90
6879;DHT22;3478;51.462;7.338;2022-11-15T23:04:51;12.90;99.90
6879;DHT22;3478;51.462;7.338;2022-11-15T23:09:54;12.90;99.90
6879;DHT22;3478;51.462;7.338;2022-11-15T23:15:17;12.90;99.90
6879;DHT22;3478;51.462;7.338;2022-11-15T23:20:19;12.90;99.90
6879;DHT22;3478;51.462;7.338;2022-11-15T23:25:22;12.90;99.90
6879;DHT22;3478;51.462;7.338;2022-11-15T23:30:24;12.80;99.90
6879;DHT22;3478;51.462;7.338;2022-11-15T23:35:52;12.80;99.90
6879;DHT22;3478;51.462;7.338;2022-11-15T23:40:56;12.80;99.90
6879;DHT22;3478;51.462;7.338;2022-11-15T23:45:59;12.70;99.90
6879;DHT22;3478;51.462;7.338;2022-11-15T23:51:01;12.70;99.90
6879;DHT22;3478;51.462;7.338;2022-11-15T23:56:08;12.60;99.90
